Time;durP1;ratioP1;P1;durP2;ratioP2;P2;SDS_P1;SDS_P2;PMS_P1;PMS_P2;Temp;Humidity;BMP_temperature;BMP_pressure;BME280_temperature;BME280_humidity;BME280_pressure;Samples;Min_cycle;Max_cycle;Signal;HPM_P1;HPM_P2
2021/12/08 00:02:15;;;;;;;45.43;17.35;;;;;;;-1.48;85.19;98153.95;1803870;79;25640;-62
2021/12/08 00:04:43;;;;;;;42.48;13.53;;;;;;;-1.50;85.22;98150.17;1803954;79;25465;-62
2021/12/08 00:07:11;;;;;;;46.10;15.32;;;;;;;-1.49;85.33;98146.45;1804120;79;25721;-62
2021/12/08 00:10:00;;;;;;;37.08;13.98;;;;;;;-1.42;85.30;98152.97;1804711;79;25552;-62
2021/12/08 00:15:01;;;;;;;36.45;13.60;;;;;;;-1.50;85.46;98144.00;1803900;79;25722;-62
2021/12/08 00:17:28;;;;;;;22.10;8.85;;;;;;;-1.53;85.52;98143.95;1804270;79;25615;-63
2021/12/08 00:19:54;;;;;;;55.65;19.35;;;;;;;-1.56;85.64;98143.92;1804149;79;25507;-62
2021/12/08 00:22:21;;;;;;;21.12;8.68;;;;;;;-1.57;85.64;98146.86;1804212;79;25640;-62
2021/12/08 00:24:47;;;;;;;40.95;16.48;;;;;;;-1.57;85.58;98158.42;1803975;79;27459;-62
2021/12/08 00:27:14;;;;;;;52.48;19.20;;;;;;;-1.56;85.59;98164.08;1804006;79;25698;-63
2021/12/08 00:29:40;;;;;;;27.58;9.65;;;;;;;-1.49;85.59;98163.91;1804165;79;25409;-62
2021/12/08 00:32:09;;;;;;;47.98;18.25;;;;;;;-1.46;85.39;98167.98;1803889;79;25489;-62
2021/12/08 00:34:38;;;;;;;33.63;13.10;;;;;;;-1.49;85.16;98168.47;1812374;78;25643;-62
2021/12/08 00:37:05;;;;;;;39.00;13.65;;;;;;;-1.54;85.43;98169.20;1818292;78;29192;-62
2021/12/08 00:39:33;;;;;;;19.92;8.08;;;;;;;-1.53;85.35;98175.67;1818701;78;25592;-62
2021/12/08 00:42:00;;;;;;;25.25;10.45;;;;;;;-1.52;85.50;98175.16;1818228;78;25408;-63
2021/12/08 00:44:26;;;;;;;31.77;12.07;;;;;;;-1.53;85.26;98182.92;1818337;78;25697;-63
2021/12/08 00:46:52;;;;;;;24.57;10.08;;;;;;;-1.55;85.57;98178.34;1818581;78;25883;-62
2021/12/08 00:49:19;;;;;;;45.17;15.35;;;;;;;-1.58;85.50;98178.83;1818360;78;27469;-63
2021/12/08 00:51:46;;;;;;;43.70;15.83;;;;;;;-1.58;85.68;98184.99;1818147;78;25409;-63
2021/12/08 00:54:12;;;;;;;39.08;13.95;;;;;;;-1.58;85.71;98185.55;1818436;78;25422;-63
2021/12/08 00:56:38;;;;;;;42.62;14.45;;;;;;;-1.56;85.64;98182.88;1818506;78;25469;-62
2021/12/08 00:59:05;;;;;;;51.73;17.70;;;;;;;-1.53;85.55;98190.98;1818248;78;25594;-62
2021/12/08 01:01:32;;;;;;;47.80;16.15;;;;;;;-1.54;85.35;98191.53;1818465;78;27673;-62
2021/12/08 01:03:58;;;;;;;55.58;18.50;;;;;;;-1.53;85.27;98193.66;1818059;78;25642;-62
2021/12/08 01:06:25;;;;;;;16.45;6.22;;;;;;;-1.53;85.42;98186.95;1818537;78;25722;-63
2021/12/08 01:08:52;;;;;;;44.90;15.53;;;;;;;-1.52;85.31;98179.98;1818172;78;25647;-63
2021/12/08 01:11:21;;;;;;;41.63;14.98;;;;;;;-1.50;85.12;98163.61;1818387;78;25411;-63
2021/12/08 01:13:48;;;;;;;41.75;13.32;;;;;;;-1.46;84.79;98166.11;1818185;78;27425;-63
2021/12/08 01:16:17;;;;;;;20.80;8.33;;;;;;;-1.41;84.59;98158.66;1818373;78;25683;-63
2021/12/08 01:18:44;;;;;;;35.40;13.05;;;;;;;-1.43;84.25;98150.02;1818534;78;25636;-64
2021/12/08 01:21:12;;;;;;;33.50;12.98;;;;;;;-1.47;84.11;98131.42;1818752;78;25409;-63
2021/12/08 01:23:40;;;;;;;26.05;8.55;;;;;;;-1.53;84.04;98117.08;1818838;78;25565;-63
2021/12/08 01:26:08;;;;;;;24.95;9.58;;;;;;;-1.57;84.03;98113.27;1818346;78;27406;-63
2021/12/08 01:28:34;;;;;;;36.68;12.43;;;;;;;-1.62;84.18;98131.47;1818277;78;25563;-63
2021/12/08 01:31:04;;;;;;;24.98;9.15;;;;;;;-1.70;84.43;98134.59;1818287;78;25638;-63
2021/12/08 01:33:31;;;;;;;20.82;8.40;;;;;;;-1.74;84.61;98136.95;1818211;78;25765;-63
2021/12/08 01:35:58;;;;;;;32.20;10.90;;;;;;;-1.81;84.69;98145.16;1804341;79;25600;-63
2021/12/08 01:38:25;;;;;;;28.62;10.25;;;;;;;-1.83;84.97;98151.84;1804356;79;27501;-64
2021/12/08 01:40:52;;;;;;;38.40;10.53;;;;;;;-1.87;85.07;98155.56;1804274;79;25689;-63
2021/12/08 01:43:40;;;;;;;34.85;12.45;;;;;;;-1.85;84.99;98159.32;1804087;79;25596;-63
2021/12/08 01:46:06;;;;;;;39.88;14.83;;;;;;;-1.87;84.92;98156.91;1802020;79;25603;-63
2021/12/08 01:48:39;;;;;;;37.55;14.23;;;;;;;-1.85;85.06;98166.86;1804365;79;25711;-62
2021/12/08 01:51:10;;;;;;;31.97;12.35;;;;;;;-1.86;84.97;98154.50;1804633;78;28087;-63
2021/12/08 01:53:40;;;;;;;39.42;14.18;;;;;;;-1.92;84.98;98152.27;1804504;78;25450;-63
2021/12/08 01:56:09;;;;;;;17.75;7.28;;;;;;;-1.95;85.16;98145.22;1804464;79;25678;-63
2021/12/08 01:58:36;;;;;;;23.02;8.90;;;;;;;-2.00;85.16;98136.55;1804398;79;25662;-62
2021/12/08 02:01:10;;;;;;;24.32;8.25;;;;;;;-2.04;85.35;98120.65;1804115;79;25643;-62
2021/12/08 02:03:38;;;;;;;28.20;10.43;;;;;;;-2.09;85.31;98106.61;1803786;79;28013;-62
2021/12/08 02:06:07;;;;;;;29.87;11.88;;;;;;;-2.09;85.21;98100.42;1804358;78;25395;-62
2021/12/08 02:08:36;;;;;;;26.27;10.08;;;;;;;-2.11;85.28;98099.84;1804463;79;25408;-62
2021/12/08 02:11:04;;;;;;;26.05;9.55;;;;;;;-2.06;85.36;98095.91;1804468;79;25551;-63
2021/12/08 02:13:37;;;;;;;34.35;12.70;;;;;;;-1.99;85.22;98085.80;1804051;79;25406;-61
2021/12/08 02:16:02;;;;;;;25.90;9.53;;;;;;;-1.99;84.97;98096.55;1804112;79;25928;-62
2021/12/08 02:18:29;;;;;;;21.12;8.85;;;;;;;-2.02;84.77;98093.00;1803966;79;25474;-62
2021/12/08 02:20:59;;;;;;;30.97;11.50;;;;;;;-2.07;84.75;98095.08;1804041;79;25587;-62
2021/12/08 02:23:26;;;;;;;27.27;10.98;;;;;;;-2.10;84.69;98089.41;1804166;79;25633;-62
2021/12/08 02:25:54;;;;;;;23.02;9.95;;;;;;;-2.10;84.81;98094.22;1804281;79;25816;-62
2021/12/08 02:28:20;;;;;;;27.52;9.08;;;;;;;-2.14;84.64;98101.15;1804276;79;27429;-62
2021/12/08 02:30:52;;;;;;;34.60;11.80;;;;;;;-2.18;84.84;98090.10;1804186;79;25469;-62
2021/12/08 02:47:16;;;;;;;33.35;12.65;;;;;;;-2.33;85.14;98076.42;1818285;78;25574;-62
2021/12/08 02:49:42;;;;;;;20.95;7.92;;;;;;;-2.25;85.16;98072.53;1817645;78;25390;-62
2021/12/08 02:52:11;;;;;;;15.83;6.72;;;;;;;-2.26;84.99;98069.02;1818728;78;25599;-63
2021/12/08 02:54:42;;;;;;;18.62;7.03;;;;;;;-2.25;85.26;98061.79;1818658;78;28192;-62
2021/12/08 02:57:11;;;;;;;21.33;8.55;;;;;;;-2.22;85.16;98050.56;1818005;78;25774;-62
2021/12/08 02:59:40;;;;;;;20.72;9.10;;;;;;;-2.16;84.83;98040.98;1818637;78;25403;-61
2021/12/08 03:02:08;;;;;;;24.63;9.25;;;;;;;-2.15;84.78;98046.66;1818693;78;25437;-62
2021/12/08 03:04:35;;;;;;;30.05;10.10;;;;;;;-2.23;85.03;98048.92;1818378;78;25703;-62
2021/12/08 03:07:04;;;;;;;24.37;8.85;;;;;;;-2.32;85.12;98051.20;1818273;78;27452;-62
2021/12/08 03:09:30;;;;;;;31.27;10.18;;;;;;;-2.40;85.13;98038.48;1818526;78;25640;-62
2021/12/08 03:12:00;;;;;;;18.87;6.72;;;;;;;-2.43;85.24;98048.88;1818289;78;25575;-62
2021/12/08 03:14:28;;;;;;;26.45;8.70;;;;;;;-2.46;85.14;98042.66;1818231;78;25524;-62
2021/12/08 03:17:00;;;;;;;22.77;9.68;;;;;;;-2.46;85.19;98039.45;1818457;78;25484;-62
2021/12/08 03:19:29;;;;;;;24.27;8.48;;;;;;;-2.47;85.28;98043.73;1818801;78;26816;-61
2021/12/08 03:21:56;;;;;;;26.97;9.23;;;;;;;-2.46;84.93;98044.00;1818351;78;25763;-61
2021/12/08 03:29:48;;;;;;;22.95;7.85;;;;;;;-2.34;84.68;98058.67;1818353;78;25570;-62
2021/12/08 03:32:15;;;;;;;19.80;6.72;;;;;;;-2.34;84.58;98051.97;1817007;78;25912;-62
2021/12/08 03:34:51;;;;;;;17.48;6.10;;;;;;;-2.34;84.58;98038.55;1814391;78;25883;-61
2021/12/08 03:37:13;;;;;;;28.62;9.90;;;;;;;-2.39;84.51;98035.25;1802674;79;25609;-62
2021/12/08 03:39:43;;;;;;;20.77;9.63;;;;;;;-2.33;84.78;98029.46;1803957;79;25651;-62
2021/12/08 03:42:11;;;;;;;20.52;7.22;;;;;;;-2.38;84.33;98023.48;1804429;79;25418;-62
2021/12/08 03:44:38;;;;;;;30.72;10.50;;;;;;;-2.39;84.52;98013.78;1804341;79;27481;-62
2021/12/08 03:47:15;;;;;;;27.85;8.93;;;;;;;-2.36;84.60;98014.64;1804027;79;25402;-61
2021/12/08 03:49:38;;;;;;;37.80;14.33;;;;;;;-2.33;84.59;98018.73;1803087;79;25574;-61
2021/12/08 03:52:05;;;;;;;32.17;12.88;;;;;;;-2.34;84.35;98029.98;1779314;79;25679;-62
2021/12/08 03:54:32;;;;;;;19.75;7.83;;;;;;;-2.31;84.42;98037.54;1804032;79;25575;-61
2021/12/08 03:56:59;;;;;;;18.30;8.98;;;;;;;-2.29;84.19;98030.07;1803975;79;27403;-61
2021/12/08 03:59:25;;;;;;;14.60;6.20;;;;;;;-2.31;83.80;98024.12;1803852;79;25445;-61
2021/12/08 04:01:52;;;;;;;27.77;10.30;;;;;;;-2.31;83.81;98030.01;1803997;79;25572;-61
2021/12/08 04:04:19;;;;;;;20.17;7.53;;;;;;;-2.28;83.89;98029.00;1803915;79;25455;-62
2021/12/08 04:06:50;;;;;;;25.37;8.13;;;;;;;-2.28;83.66;98022.30;1804019;79;25656;-61
2021/12/08 04:09:28;;;;;;;26.42;10.20;;;;;;;-2.35;83.55;98018.97;1803807;79;25893;-63
2021/12/08 04:11:48;;;;;;;23.92;8.65;;;;;;;-2.36;83.76;98031.29;1802663;79;25725;-61
2021/12/08 04:14:18;;;;;;;20.35;8.55;;;;;;;-2.35;83.74;98028.36;1803942;79;25588;-61
2021/12/08 04:16:56;;;;;;;15.38;6.35;;;;;;;-2.39;83.58;98020.49;1804341;79;25441;-62
2021/12/08 04:19:23;;;;;;;23.67;8.38;;;;;;;-2.41;83.62;98011.89;1772057;80;25452;-61
2021/12/08 04:21:54;;;;;;;25.05;8.15;;;;;;;-2.43;83.74;98018.84;1771686;81;27479;-63
2021/12/08 04:24:22;;;;;;;25.08;9.23;;;;;;;-2.45;83.74;98021.50;1772074;81;25759;-62
2021/12/08 04:27:00;;;;;;;14.38;5.78;;;;;;;-2.48;83.79;98014.73;1771995;81;25450;-62
2021/12/08 04:29:31;;;;;;;21.87;8.85;;;;;;;-2.45;83.91;98017.47;1771325;81;25746;-62
2021/12/08 04:31:59;;;;;;;;;;;;;;;-2.43;83.72;98010.80;1774665;81;25502;-61
2021/12/08 04:34:32;;;;;;;25.57;9.20;;;;;;;-2.43;83.70;98012.14;1770532;80;27407;-62
2021/12/08 04:37:04;;;;;;;24.57;9.90;;;;;;;-2.51;83.72;98003.14;1745477;82;25668;-62
2021/12/08 04:39:46;;;;;;;30.35;10.50;;;;;;;-2.55;83.84;97982.71;1745748;82;25741;-61
2021/12/08 04:42:10;;;;;;;18.15;8.00;;;;;;;-2.59;83.74;97990.94;1743703;82;25692;-62
2021/12/08 04:44:42;;;;;;;20.02;7.67;;;;;;;-2.62;83.71;97988.75;1745085;82;26197;-61
2021/12/08 04:47:32;;;;;;;29.50;12.35;;;;;;;-2.61;83.71;97990.91;1744242;82;26785;-61
2021/12/08 04:52:51;;;;;;;21.02;7.33;;;;;;;-2.75;83.63;97988.55;1739042;82;25487;-62
2021/12/08 05:03:45;;;;;;;24.12;8.95;;;;;;;-2.86;83.56;97980.86;1774249;80;25589;-63
2021/12/08 05:08:55;;;;;;;41.08;16.67;;;;;;;-2.92;83.78;97969.25;1774275;80;25561;-62
2021/12/08 05:11:27;;;;;;;35.90;12.88;;;;;;;-2.96;83.80;97965.43;1774429;80;25656;-64
2021/12/08 05:13:58;;;;;;;23.80;10.68;;;;;;;-2.99;83.84;97962.41;1774829;80;28042;-62
2021/12/08 05:16:27;;;;;;;24.15;9.60;;;;;;;-3.02;83.91;97964.51;1774214;80;25647;-62
2021/12/08 05:18:57;;;;;;;21.90;8.40;;;;;;;-3.05;83.95;97956.16;1774701;80;25806;-61
2021/12/08 05:21:28;;;;;;;24.23;9.40;;;;;;;-3.07;84.02;97955.05;1774784;80;26013;-61
2021/12/08 05:24:06;;;;;;;22.95;8.55;;;;;;;-3.08;84.08;97952.07;1774290;80;25589;-61
2021/12/08 05:26:41;;;;;;;22.35;7.83;;;;;;;-3.10;84.10;97957.39;1773944;80;28154;-62
2021/12/08 05:29:18;;;;;;;22.25;9.20;;;;;;;-3.14;84.25;97958.39;1774380;80;25431;-64
2021/12/08 05:31:46;;;;;;;19.05;8.40;;;;;;;-3.16;84.35;97972.03;1774603;80;25664;-63
2021/12/08 05:34:12;;;;;;;24.80;7.60;;;;;;;-3.18;84.48;97968.80;1774537;80;25660;-62
2021/12/08 05:36:40;;;;;;;22.80;9.23;;;;;;;-3.16;84.49;97969.91;1810849;78;25656;-62
2021/12/08 05:39:16;;;;;;;21.05;8.15;;;;;;;-3.16;84.48;97969.91;1818754;78;27458;-62
2021/12/08 05:41:44;;;;;;;21.10;8.08;;;;;;;-3.16;84.47;97966.67;1818265;78;25763;-63
2021/12/08 05:44:12;;;;;;;29.42;11.75;;;;;;;-3.16;84.54;97956.50;1818367;78;25474;-64
2021/12/08 05:46:42;;;;;;;20.75;7.17;;;;;;;-3.16;84.47;97953.27;1818305;78;25584;-62
2021/12/08 05:49:13;;;;;;;30.10;10.98;;;;;;;-3.17;84.50;97941.45;1818832;78;25386;-63
2021/12/08 05:51:43;;;;;;;28.35;11.68;;;;;;;-3.19;84.40;97944.38;1818624;78;27578;-62
2021/12/08 05:54:21;;;;;;;26.57;9.03;;;;;;;-3.20;84.39;97941.97;1818675;78;25667;-64
2021/12/08 05:56:50;;;;;;;15.38;7.37;;;;;;;-3.21;84.48;97941.14;1817488;78;25587;-61
2021/12/08 05:59:18;;;;;;;29.18;11.63;;;;;;;-3.21;84.32;97939.80;1787093;78;25604;-63
2021/12/08 06:02:01;;;;;;;31.85;11.60;;;;;;;-3.25;84.30;97940.00;1818392;78;25588;-62
2021/12/08 06:04:31;;;;;;;23.80;9.85;;;;;;;-3.28;84.34;97933.23;1818416;78;27466;-63
2021/12/08 06:06:59;;;;;;;21.07;9.00;;;;;;;-3.28;84.43;97933.23;1818509;78;25487;-61
2021/12/08 06:09:28;;;;;;;22.30;8.33;;;;;;;-3.26;84.46;97937.02;1818293;78;25401;-64
2021/12/08 06:11:56;;;;;;;17.10;7.70;;;;;;;-3.26;84.32;97940.25;1818286;78;25456;-62
2021/12/08 06:14:31;;;;;;;18.80;7.80;;;;;;;-3.28;84.34;97943.95;1818502;78;25394;-61
2021/12/08 06:16:54;;;;;;;19.32;6.85;;;;;;;-3.29;84.29;97934.30;1817492;78;25897;-60
2021/12/08 06:19:22;;;;;;;21.62;8.90;;;;;;;-3.29;84.23;97937.50;1818381;78;25571;-61
2021/12/08 06:21:50;;;;;;;35.80;14.40;;;;;;;-3.32;84.31;97932.62;1818481;78;25650;-62
2021/12/08 06:24:19;;;;;;;28.57;9.35;;;;;;;-3.37;84.44;97932.55;1818217;78;25782;-61
2021/12/08 06:26:47;;;;;;;19.77;8.53;;;;;;;-3.34;84.42;97922.69;1818708;78;25449;-61
2021/12/08 06:29:17;;;;;;;23.00;8.15;;;;;;;-3.35;84.43;97923.72;1818266;78;27434;-61
2021/12/08 06:31:47;;;;;;;16.37;6.33;;;;;;;-3.37;84.47;97925.84;1818491;78;25714;-60
2021/12/08 06:34:14;;;;;;;13.35;6.92;;;;;;;-3.35;84.36;97933.10;1818616;78;25605;-61
2021/12/08 06:36:46;;;;;;;30.97;11.18;;;;;;;-3.36;84.29;97922.11;1808270;78;25927;-61
2021/12/08 06:39:20;;;;;;;24.92;9.75;;;;;;;-3.40;84.33;97921.25;1804185;79;25648;-61
2021/12/08 06:41:52;;;;;;;25.70;10.08;;;;;;;-3.37;84.28;97925.30;1804061;79;29471;-61
2021/12/08 06:44:24;;;;;;;24.27;9.63;;;;;;;-3.37;84.25;97925.30;1804223;79;25394;-61
2021/12/08 06:46:52;;;;;;;25.50;9.70;;;;;;;-3.36;84.16;97932.83;1804526;78;25658;-61
2021/12/08 06:49:22;;;;;;;22.02;7.75;;;;;;;-3.36;84.11;97928.80;1804232;79;25595;-61
2021/12/08 06:51:54;;;;;;;22.60;8.57;;;;;;;-3.32;84.13;97931.28;1804399;79;25644;-61
2021/12/08 06:54:28;;;;;;;23.20;10.25;;;;;;;-3.33;83.94;97931.83;1800173;79;27417;-61
2021/12/08 06:57:03;;;;;;;28.17;10.30;;;;;;;-3.35;84.05;97927.73;1802788;79;27084;-62
2021/12/08 06:59:35;;;;;;;20.70;7.95;;;;;;;-3.37;84.14;97932.55;1804285;79;25612;-62
2021/12/08 07:02:11;;;;;;;32.90;11.12;;;;;;;-3.35;84.07;97933.92;1804222;79;25727;-61
2021/12/08 07:04:56;;;;;;;38.00;10.48;;;;;;;-3.33;84.00;97937.19;1803772;79;25402;-60
2021/12/08 07:07:26;;;;;;;27.60;9.40;;;;;;;-3.30;83.92;97942.06;1803733;79;26007;-61
2021/12/08 07:09:58;;;;;;;23.07;10.23;;;;;;;-3.29;83.87;97943.68;1804141;79;25797;-61
2021/12/08 07:12:30;;;;;;;26.37;9.33;;;;;;;-3.24;83.93;97938.12;1804006;79;25438;-60
2021/12/08 07:15:04;;;;;;;25.85;10.28;;;;;;;-3.25;83.60;97947.22;1804400;79;25720;-60
2021/12/08 07:17:34;;;;;;;30.72;10.30;;;;;;;-3.23;83.68;97947.26;1802434;79;25412;-61
2021/12/08 07:20:48;;;;;;;21.48;8.75;;;;;;;-3.15;83.72;97952.76;1804580;79;28077;-60
2021/12/08 07:22:34;;;;;;;12.23;5.47;;;;;;;-3.10;83.45;97951.52;1775378;79;25573;-61
2021/12/08 07:25:04;;;;;;;17.62;6.58;;;;;;;-3.12;82.93;97944.75;1804399;79;25417;-61
2021/12/08 07:27:35;;;;;;;22.58;8.35;;;;;;;-3.05;83.15;97957.50;1804166;79;25738;-61
2021/12/08 07:30:05;;;;;;;;;;;;;;;-3.04;83.29;97956.43;1807199;79;25564;-61
2021/12/08 07:32:35;;;;;;;28.23;10.25;;;;;;;-3.07;83.20;97952.38;1803843;79;27855;-61
2021/12/08 07:35:07;;;;;;;20.20;7.92;;;;;;;-3.06;83.38;97961.21;1790266;79;26125;-61
2021/12/08 07:37:35;;;;;;;23.22;8.43;;;;;;;-3.03;83.16;97963.41;1790415;79;25661;-61
2021/12/08 07:40:16;;;;;;;21.50;7.12;;;;;;;-2.99;83.26;97969.11;1800563;79;25758;-62
2021/12/08 07:43:03;;;;;;;25.25;9.03;;;;;;;-2.99;83.05;97972.62;1795796;79;25411;-64
2021/12/08 07:45:35;;;;;;;26.02;9.23;;;;;;;-2.93;83.06;97966.80;1804220;79;27458;-63
2021/12/08 07:48:07;;;;;;;18.10;6.37;;;;;;;-2.94;82.91;97974.03;1803809;79;25560;-65
2021/12/08 07:50:52;;;;;;;24.80;9.28;;;;;;;-2.95;83.09;97976.95;1804209;79;25648;-63
2021/12/08 07:53:23;;;;;;;20.02;7.08;;;;;;;-2.93;83.18;97972.96;1803941;79;26127;-62
2021/12/08 07:55:56;;;;;;;23.70;8.98;;;;;;;-2.85;83.04;97969.62;1804541;79;25470;-63
2021/12/08 07:58:23;;;;;;;21.55;9.13;;;;;;;-2.84;82.83;97964.53;1803918;79;27157;-62
2021/12/08 08:00:58;;;;;;;22.90;7.53;;;;;;;-2.83;82.80;97975.53;1804125;79;25595;-62
2021/12/08 08:03:28;;;;;;;29.30;9.78;;;;;;;-2.83;82.79;97969.66;1804308;79;25430;-62
2021/12/08 08:05:59;;;;;;;29.55;13.55;;;;;;;-2.84;82.83;97964.02;1804541;79;32347;-62
2021/12/08 08:08:30;;;;;;;15.30;5.72;;;;;;;-2.87;82.86;97960.48;1804515;79;25699;-63
2021/12/08 08:11:00;;;;;;;19.17;6.80;;;;;;;-2.84;82.95;97947.09;1803557;79;26898;-62
2021/12/08 08:13:28;;;;;;;21.48;8.73;;;;;;;-2.79;82.54;97955.23;1803828;79;25580;-63
2021/12/08 08:16:05;;;;;;;26.42;11.80;;;;;;;-2.78;82.32;97952.31;1804171;79;25478;-62
2021/12/08 08:18:30;;;;;;;33.02;13.05;;;;;;;-2.76;82.61;97964.14;1803538;79;25407;-64
2021/12/08 08:21:02;;;;;;;21.75;10.18;;;;;;;-2.70;82.52;97959.14;1804370;79;25456;-64
2021/12/08 08:23:31;;;;;;;31.50;12.82;;;;;;;-2.68;82.18;97959.70;1803895;79;27300;-62
2021/12/08 08:26:00;;;;;;;22.40;9.08;;;;;;;-2.72;82.16;97965.27;1804235;79;25617;-63
2021/12/08 08:28:28;;;;;;;25.20;9.88;;;;;;;-2.72;82.18;97947.84;1780029;79;25584;-66
2021/12/08 08:31:12;;;;;;;23.10;8.83;;;;;;;-2.68;82.12;97958.91;1803910;79;25840;-63
2021/12/08 08:33:42;;;;;;;29.72;11.35;;;;;;;-2.60;81.94;97955.80;1774258;80;25747;-66
2021/12/08 08:36:14;;;;;;;21.70;8.45;;;;;;;-2.49;82.06;97958.63;1770742;80;28170;-63
2021/12/08 08:38:52;;;;;;;27.90;10.03;;;;;;;-2.46;81.50;97953.59;1759366;81;25715;-62
2021/12/08 08:41:27;;;;;;;25.23;10.98;;;;;;;-2.44;81.25;97967.59;1759030;81;25462;-62
2021/12/08 08:43:58;;;;;;;38.83;14.43;;;;;;;-2.36;81.66;97967.67;1757885;81;26623;-62
2021/12/08 08:46:32;;;;;;;30.08;11.03;;;;;;;-2.30;81.35;97960.53;1759137;81;25707;-62
2021/12/08 08:49:06;;;;;;;18.35;8.08;;;;;;;-2.30;80.97;97962.66;1759329;80;25681;-62
2021/12/08 08:51:40;;;;;;;19.50;7.80;;;;;;;-2.26;80.92;97963.00;1758743;81;25681;-62
2021/12/08 08:54:15;;;;;;;36.08;12.10;;;;;;;-2.19;80.84;97958.81;1759147;81;25655;-63
2021/12/08 08:56:46;;;;;;;23.35;9.20;;;;;;;-2.13;80.79;97957.00;1758508;81;25847;-62
2021/12/08 08:59:18;;;;;;;22.15;9.10;;;;;;;-2.15;79.99;97952.70;1758960;81;25572;-62
2021/12/08 09:01:50;;;;;;;34.73;14.53;;;;;;;-2.17;80.24;97951.30;1759317;81;28173;-63
2021/12/08 09:04:31;;;;;;;29.45;10.50;;;;;;;-2.07;80.67;97951.98;1758805;81;27024;-61
2021/12/08 09:07:02;;;;;;;32.23;12.88;;;;;;;-2.00;80.10;97961.19;1759319;81;25683;-62
2021/12/08 09:09:34;;;;;;;43.13;14.98;;;;;;;-2.02;79.75;97967.63;1759890;79;25732;-62
2021/12/08 09:12:18;;;;;;;26.93;10.58;;;;;;;-2.00;79.71;97962.52;1796712;79;25703;-64
2021/12/08 09:14:50;;;;;;;22.77;7.72;;;;;;;-2.00;79.54;97966.55;1794696;79;27850;-63
2021/12/08 09:17:35;;;;;;;26.25;10.10;;;;;;;-2.00;79.71;97960.66;1793527;79;25426;-63
2021/12/08 09:20:31;;;;;;;26.20;10.25;;;;;;;-1.98;79.58;97950.49;1796638;79;25640;-62
2021/12/08 09:23:15;;;;;;;22.77;9.85;;;;;;;-1.84;79.70;97954.94;1794524;79;27957;-64
2021/12/08 09:26:02;;;;;;;29.02;8.95;;;;;;;-1.84;79.11;97948.22;1796826;79;25360;-63
2021/12/08 09:28:34;;;;;;;27.13;12.30;;;;;;;-1.81;79.01;97960.36;1796613;79;29716;-62
2021/12/08 09:31:10;;;;;;;16.67;6.85;;;;;;;-1.78;79.17;97957.97;1796432;79;25589;-62
2021/12/08 09:33:42;;;;;;;21.57;10.25;;;;;;;-1.80;78.45;97957.43;1794622;79;25630;-63
2021/12/08 09:36:19;;;;;;;20.12;8.60;;;;;;;-1.79;78.73;97952.84;1792869;79;25674;-62
2021/12/08 09:38:51;;;;;;;30.32;11.33;;;;;;;-1.81;78.57;97938.33;1796032;79;25503;-66
2021/12/08 09:41:32;;;;;;;22.42;10.13;;;;;;;-1.86;78.57;97945.00;1796823;79;28528;-62
2021/12/08 09:44:07;;;;;;;17.67;7.25;;;;;;;-1.88;78.88;97927.52;1790915;79;25699;-62
2021/12/08 09:46:39;;;;;;;16.73;7.05;;;;;;;-1.83;78.68;97930.25;1795585;79;25677;-63
2021/12/08 09:49:07;;;;;;;21.02;8.70;;;;;;;-1.60;78.81;97917.09;1793269;79;26466;-61
2021/12/08 09:51:36;;;;;;;14.93;6.42;;;;;;;-1.55;77.66;97921.70;1789921;79;25637;-62
2021/12/08 09:54:04;;;;;;;22.07;8.78;;;;;;;-1.52;77.56;97928.71;1782951;79;28039;-62
2021/12/08 09:56:33;;;;;;;20.05;9.30;;;;;;;-1.41;78.05;97922.91;1792339;79;25663;-63
2021/12/08 09:59:03;;;;;;;16.80;6.28;;;;;;;-1.16;77.42;97920.73;1787309;79;25668;-62
2021/12/08 10:01:30;;;;;;;18.77;6.55;;;;;;;-1.09;75.99;97923.22;1788818;79;25791;-63
2021/12/08 10:03:59;;;;;;;15.90;7.20;;;;;;;-1.19;76.25;97924.75;1786228;79;25399;-63
2021/12/08 10:06:27;;;;;;;20.12;9.13;;;;;;;-1.15;76.85;97915.65;1786042;79;27406;-63
2021/12/08 10:08:58;;;;;;;24.12;9.65;;;;;;;-0.99;76.42;97909.03;1788644;79;25694;-62
2021/12/08 10:11:28;;;;;;;18.00;8.13;;;;;;;-1.10;75.82;97912.98;1779613;79;25635;-62
2021/12/08 10:13:57;;;;;;;16.67;6.85;;;;;;;-1.12;76.05;97907.08;1761405;81;25631;-63
2021/12/08 10:16:26;;;;;;;21.42;9.73;;;;;;;-1.14;75.68;97915.92;1761450;81;25645;-62
2021/12/08 10:18:55;;;;;;;23.25;9.05;;;;;;;-1.10;75.68;97902.78;1761168;81;28265;-62
2021/12/08 10:21:38;;;;;;;15.40;7.03;;;;;;;-1.08;75.48;97898.77;1761293;81;25800;-62
2021/12/08 10:24:28;;;;;;;15.93;7.12;;;;;;;-1.08;75.44;97892.04;1761318;81;25727;-62
2021/12/08 10:27:05;;;;;;;15.50;7.58;;;;;;;-1.09;75.69;97882.88;1761384;81;25713;-62
2021/12/08 10:29:33;;;;;;;22.42;9.10;;;;;;;-0.93;75.27;97887.84;1761197;81;25732;-61
2021/12/08 10:32:02;;;;;;;18.85;8.35;;;;;;;-0.83;75.21;97885.77;1761538;80;27366;-61
2021/12/08 10:34:35;;;;;;;22.85;9.68;;;;;;;-0.80;74.99;97878.53;1761436;81;25609;-61
2021/12/08 10:37:19;;;;;;;20.75;9.85;;;;;;;-0.72;74.96;97867.83;1763623;80;25433;-62
2021/12/08 10:39:49;;;;;;;15.20;6.90;;;;;;;-0.81;74.82;97869.64;1769478;81;25778;-61
2021/12/08 10:42:26;;;;;;;22.13;7.47;;;;;;;-0.90;74.56;97873.87;1769763;80;25644;-61
2021/12/08 10:45:11;;;;;;;17.62;8.03;;;;;;;-0.93;74.33;97864.98;1769674;81;27834;-62
2021/12/08 10:47:47;;;;;;;23.20;9.33;;;;;;;-0.92;74.58;97865.27;1769275;80;26215;-62
2021/12/08 10:56:15;;;;;;;19.90;9.88;;;;;;;-1.04;74.68;97850.11;1769539;81;25668;-61
2021/12/08 10:58:50;;;;;;;17.70;8.25;;;;;;;-1.11;74.64;97849.53;1769247;80;29544;-61
2021/12/08 11:01:24;;;;;;;17.92;6.20;;;;;;;-1.14;75.05;97852.20;1769227;81;25411;-61
2021/12/08 11:04:00;;;;;;;28.17;12.23;;;;;;;-0.90;74.59;97842.94;1769245;81;25384;-61
2021/12/08 11:06:33;;;;;;;25.23;9.68;;;;;;;-0.90;74.43;97840.25;1769315;81;26706;-62
2021/12/08 11:09:00;;;;;;;27.42;10.65;;;;;;;-0.86;74.66;97841.91;1769721;81;25668;-61
2021/12/08 11:11:33;;;;;;;18.17;8.33;;;;;;;-0.82;73.94;97839.78;1769624;81;27515;-62
2021/12/08 11:14:05;;;;;;;21.42;10.78;;;;;;;-0.84;74.03;97837.09;1769590;81;26009;-61
2021/12/08 11:16:39;;;;;;;19.67;8.73;;;;;;;-0.88;74.15;97843.50;1769674;81;25672;-61
2021/12/08 11:19:22;;;;;;;21.82;9.50;;;;;;;-0.92;73.98;97837.03;1769741;81;25738;-62
2021/12/08 11:21:54;;;;;;;14.78;6.47;;;;;;;-0.92;74.27;97830.30;1769493;81;25608;-61
2021/12/08 11:24:32;;;;;;;31.55;13.25;;;;;;;-0.86;74.24;97833.83;1769447;80;25836;-60
2021/12/08 11:27:03;;;;;;;15.13;7.10;;;;;;;-0.57;74.10;97830.77;1769013;80;25592;-61
2021/12/08 11:29:34;;;;;;;17.55;9.43;;;;;;;-0.27;73.03;97822.56;1769702;81;25613;-61
2021/12/08 11:32:07;;;;;;;17.40;7.83;;;;;;;0.18;71.88;97822.17;1769627;80;26475;-60
2021/12/08 11:34:44;;;;;;;20.68;9.45;;;;;;;0.54;72.14;97820.05;1769684;81;25436;-61
2021/12/08 11:37:16;;;;;;;18.35;9.00;;;;;;;0.53;69.95;97819.80;1771008;79;27426;-61
2021/12/08 11:39:47;;;;;;;20.95;7.92;;;;;;;0.30;70.09;97813.84;1789268;79;25670;-63
2021/12/08 11:42:19;;;;;;;16.70;6.70;;;;;;;0.18;70.54;97808.70;1804392;79;25431;-61
2021/12/08 11:44:51;;;;;;;29.27;11.85;;;;;;;0.14;70.70;97809.75;1803896;79;26314;-61
2021/12/08 11:47:29;;;;;;;15.28;7.10;;;;;;;0.33;70.76;97809.26;1804135;79;26205;-62
2021/12/08 11:50:00;;;;;;;27.75;12.25;;;;;;;0.58;69.64;97809.81;1804003;79;27417;-61
2021/12/08 11:52:29;;;;;;;;;;;;;;;0.60;69.83;97813.59;1806731;79;25427;-61
2021/12/08 11:55:01;;;;;;;25.08;10.58;;;;;;;0.64;69.77;97797.69;1804408;79;25576;-63
2021/12/08 11:57:36;;;;;;;22.10;9.85;;;;;;;0.91;69.87;97806.85;1804329;78;26740;-63
2021/12/08 12:00:14;;;;;;;22.70;10.38;;;;;;;1.15;68.27;97799.52;1803823;79;25566;-62
2021/12/08 12:02:57;;;;;;;18.98;8.70;;;;;;;1.33;68.35;97799.52;1803978;79;26896;-62
2021/12/08 12:05:37;;;;;;;24.20;10.45;;;;;;;1.37;67.55;97795.17;1803982;79;25591;-62
2021/12/08 12:08:07;;;;;;;18.57;10.08;;;;;;;1.12;67.83;97804.94;1804286;79;25584;-62
2021/12/08 12:10:39;;;;;;;23.85;11.28;;;;;;;1.06;68.03;97803.88;1804365;79;25756;-62
2021/12/08 12:13:10;;;;;;;16.52;8.08;;;;;;;1.10;68.01;97809.78;1804381;79;25378;-62
2021/12/08 12:15:41;;;;;;;17.65;7.83;;;;;;;0.98;67.07;97814.69;1804067;79;28224;-62
2021/12/08 12:18:09;;;;;;;25.97;12.68;;;;;;;1.03;66.95;97807.91;1803978;79;25637;-63
2021/12/08 12:20:44;;;;;;;24.50;11.30;;;;;;;1.05;67.37;97811.16;1804187;79;25620;-62
2021/12/08 12:24:00;;;;;;;21.15;11.22;;;;;;;0.83;67.19;97808.73;1787364;79;44753;-61
2021/12/08 12:27:20;;;;;;;23.00;10.10;;;;;;;0.68;67.22;97811.72;1804211;79;25644;-61